West Palm Beach, FL

3:38 PM EDT on May 28, 2015 (GMT -0400)
Witham | | Change Station
CLOSE
Current Station
Airport
Location: Stuart,
Elevation: 20 ft
Nearby Weather Stations

Elev 20 ft 27.18 °N, 80.22 °W | Updated 51 minutes ago

Partly Cloudy
Partly Cloudy
82 °F
Feels Like 83 °F
N
16
Wind Variable Wind from East
Gusts 22 mph

Today
High -- | Low -- °F
--% Chance of Precip.
Yesterday
High -- | Low -- °F
Precip. -- in
6:27 AM 8:07 PM
Waxing Gibbous, 78% visible
Pressure 30.12 in
Visibility 7.0 miles
Clouds Scattered Clouds 3500 ft
Heat Index 83 °F
Dew Point 63 °F
Humidity 51%
Rainfall 0.00 in
Snow Depth Not available.
UV 11 out of 12
Pollen 4.80 out of 12
Air Quality Not available.
Flu Activity Sporadic
METAR KSUA 281847Z 09014G19KT 7SM SCT035 28/17 A3012

More Conditions Fewer Conditions

Pressure 30.12 in
Visibility 7.0 miles
Clouds Scattered Clouds 3500 ft
Heat Index 83 °F
Dew Point 63 °F
Humidity 51%
Rainfall 0.00 in
Snow Depth Not available.
UV 11 out of 12
Pollen 4.80 out of 12
Air Quality Not available.
Flu Activity Sporadic
METAR KSUA 281847Z 09014G19KT 7SM SCT035 28/17 A3012

More Conditions Fewer Conditions

10-Day Weather Forecast

Almanac

Astronomy

May. 28, 2015 Rise Set
Actual Time
Civil Twilight
Nautical Twilight
Astronomical Twilight
Moon
Length of Visible Light
Length of Day
Tomorrow will be .
, % of the Moon is Illuminated

Today's Extremes

State Highs State Lows

Community

WunderPhotos

Upload Photos

1,825,040 photos uploaded!

WunderBlogs® & News

Nearby

Air Quality

  Air Quality AQ Index Pollutant
Not available.

Snow Depth

Station Depth Elevation

Earthquake Activity

City Distance Mag. Time & Date
Minimum magnitude displayed is 2.5.

Coastal Water Temperatures

Place Temperature

Stations

Nearby Weather Stations

Station Location Temp. Windchill Dew Point Humidity Wind Precip. Elev Updated Type